createdAt,value
2019-05-06T00:00:34.567Z,4.70
2019-05-06T00:03:05.099Z,3.43
2019-05-06T00:05:35.023Z,3.80
2019-05-06T00:08:05.359Z,2.60
2019-05-06T00:10:36.357Z,3.40
2019-05-06T00:13:05.617Z,5.27
2019-05-06T00:15:35.039Z,3.97
2019-05-06T00:18:04.776Z,3.10
2019-05-06T00:20:35.254Z,3.73
2019-05-06T00:23:24.931Z,2.70
2019-05-06T00:26:13.674Z,3.87
2019-05-06T00:28:47.040Z,2.67
2019-05-06T00:31:24.188Z,7.57
2019-05-06T00:33:54.020Z,5.07
2019-05-06T00:36:23.842Z,4.13
2019-05-06T00:38:54.574Z,5.13
2019-05-06T00:41:28.131Z,5.03
2019-05-06T00:43:57.554Z,5.40
2019-05-06T00:46:26.611Z,3.33
2019-05-06T00:48:55.724Z,4.43
2019-05-06T00:51:25.196Z,3.53
2019-05-06T00:53:56.219Z,4.90
2019-05-06T00:56:25.616Z,5.47
2019-05-06T00:58:54.678Z,6.37
2019-05-06T01:01:29.300Z,3.53
2019-05-06T01:03:54.515Z,6.00
2019-05-06T01:06:24.692Z,3.50
2019-05-06T01:08:54.392Z,2.90
2019-05-06T01:11:23.998Z,4.70
2019-05-06T01:14:04.339Z,8.37
2019-05-06T01:16:34.543Z,3.43
2019-05-06T01:19:04.735Z,2.97
2019-05-06T01:21:34.340Z,4.03
2019-05-06T01:24:04.131Z,3.57
2019-05-06T01:26:33.778Z,3.33
2019-05-06T01:29:04.004Z,3.83
2019-05-06T01:31:42.234Z,4.30
2019-05-06T01:34:04.505Z,3.00
2019-05-06T01:36:34.302Z,4.87
2019-05-06T01:39:18.616Z,3.80
2019-05-06T01:42:04.292Z,3.20
2019-05-06T01:44:33.935Z,3.00
2019-05-06T01:47:03.781Z,5.10
2019-05-06T01:49:34.014Z,3.00
2019-05-06T01:52:04.074Z,3.70
2019-05-06T01:54:34.961Z,5.90
2019-05-06T01:57:04.607Z,4.87
2019-05-06T01:59:34.206Z,5.77
2019-05-06T02:02:04.248Z,4.70
2019-05-06T02:04:33.829Z,4.47
2019-05-06T02:07:03.784Z,4.70
2019-05-06T02:09:34.293Z,3.60
2019-05-06T02:12:04.559Z,4.67
2019-05-06T02:14:34.202Z,5.43
2019-05-06T02:17:03.982Z,4.67
2019-05-06T02:19:34.783Z,4.40
2019-05-06T02:22:08.327Z,3.83
2019-05-06T02:24:39.064Z,5.37
2019-05-06T02:27:08.633Z,6.70
2019-05-06T02:29:39.625Z,6.70
2019-05-06T02:32:20.906Z,4.80
2019-05-06T02:34:57.906Z,6.40
2019-05-06T02:37:31.487Z,5.70
2019-05-06T02:40:03.845Z,6.80
2019-05-06T02:42:33.631Z,4.53
2019-05-06T02:45:03.987Z,7.33
2019-05-06T02:47:46.504Z,4.97
2019-05-06T02:50:17.343Z,8.57
2019-05-06T02:52:46.432Z,6.80
2019-05-06T02:55:15.669Z,4.43
2019-05-06T02:57:45.385Z,7.73
2019-05-06T03:00:17.829Z,6.73
2019-05-06T03:02:48.105Z,4.93
2019-05-06T03:05:17.566Z,6.53
2019-05-06T03:07:46.893Z,6.50
2019-05-06T03:10:16.499Z,8.13
2019-05-06T03:12:45.556Z,5.80
2019-05-06T03:15:16.816Z,11.93
2019-05-06T03:17:45.559Z,9.20
2019-05-06T03:20:19.033Z,8.73
2019-05-06T03:22:55.813Z,9.73
2019-05-06T03:25:26.577Z,11.80
2019-05-06T03:27:56.068Z,7.07
2019-05-06T03:30:25.763Z,8.63
2019-05-06T03:35:42.177Z,11.87
2019-05-06T03:37:56.583Z,5.70
2019-05-06T03:40:26.905Z,10.37
2019-05-06T03:42:56.470Z,8.97
2019-05-06T03:45:27.538Z,8.73
2019-05-06T03:47:58.427Z,8.63
2019-05-06T03:50:27.776Z,7.67
2019-05-06T03:52:57.767Z,8.23
2019-05-06T03:55:28.114Z,6.33
2019-05-06T03:57:59.749Z,11.67
2019-05-06T04:00:28.948Z,9.10
2019-05-06T04:02:58.706Z,14.40
2019-05-06T04:05:27.751Z,9.13
2019-05-06T04:07:57.741Z,15.50
2019-05-06T04:10:26.785Z,10.80
2019-05-06T04:12:57.129Z,10.47
2019-05-06T04:15:28.567Z,18.60
2019-05-06T04:18:05.164Z,14.80
2019-05-06T04:20:36.126Z,13.50
2019-05-06T04:23:07.061Z,11.83
2019-05-06T04:25:43.194Z,13.03
2019-05-06T04:28:15.910Z,11.00
2019-05-06T04:30:45.236Z,13.00
2019-05-06T04:33:17.496Z,12.73
2019-05-06T04:35:45.351Z,9.00
2019-05-06T04:38:14.584Z,11.17
2019-05-06T04:40:44.175Z,15.33
2019-05-06T04:43:13.729Z,10.87
2019-05-06T04:45:43.342Z,14.03
2019-05-06T04:48:14.254Z,14.03
2019-05-06T04:50:44.306Z,16.80
2019-05-06T04:53:14.100Z,18.43
2019-05-06T04:55:43.957Z,10.60
2019-05-06T04:58:13.812Z,14.37
2019-05-06T05:00:44.474Z,10.50
2019-05-06T05:03:14.265Z,15.23
2019-05-06T05:05:44.863Z,10.17
2019-05-06T05:08:14.768Z,10.20
2019-05-06T05:11:03.412Z,15.40
2019-05-06T05:13:36.226Z,14.20
2019-05-06T05:16:07.301Z,18.40
2019-05-06T05:18:38.147Z,14.47
2019-05-06T05:21:07.381Z,18.63
2019-05-06T05:23:36.564Z,12.33
2019-05-06T05:26:06.985Z,13.57
2019-05-06T05:28:36.501Z,12.50
2019-05-06T05:31:05.705Z,19.00
2019-05-06T05:33:35.219Z,12.97
2019-05-06T05:36:04.391Z,21.80
2019-05-06T05:38:33.406Z,14.03
2019-05-06T05:41:03.071Z,11.90
2019-05-06T05:43:39.532Z,14.37
2019-05-06T05:46:08.467Z,12.90
2019-05-06T05:48:39.227Z,13.50
2019-05-06T05:51:08.524Z,15.70
2019-05-06T05:53:37.671Z,18.37
2019-05-06T05:56:06.673Z,18.10
2019-05-06T05:58:36.187Z,16.43
2019-05-06T06:01:05.160Z,22.97
2019-05-06T06:03:34.272Z,13.07
2019-05-06T06:06:04.259Z,9.77
2019-05-06T06:08:36.518Z,15.37
2019-05-06T06:11:05.743Z,17.10
2019-05-06T06:13:34.875Z,19.17
2019-05-06T06:16:14.703Z,14.03
2019-05-06T06:18:54.392Z,12.20
2019-05-06T06:21:32.407Z,11.97
2019-05-06T06:24:18.000Z,12.63
2019-05-06T06:26:47.103Z,16.80
2019-05-06T06:29:16.342Z,12.10
2019-05-06T06:31:52.758Z,18.83
2019-05-06T06:34:23.554Z,16.93
2019-05-06T06:37:13.133Z,15.90
2019-05-06T06:39:43.224Z,19.73
2019-05-06T06:42:12.736Z,13.17
2019-05-06T06:44:42.416Z,10.73
2019-05-06T06:47:12.992Z,17.83
2019-05-06T06:49:42.644Z,14.37
2019-05-06T06:52:14.758Z,17.50
2019-05-06T06:54:43.791Z,16.57
2019-05-06T06:57:21.762Z,19.00
2019-05-06T06:59:58.406Z,16.93
2019-05-06T07:02:43.230Z,15.40
2019-05-06T07:05:24.909Z,15.13
2019-05-06T07:07:47.617Z,23.97
2019-05-06T07:10:34.521Z,20.27
2019-05-06T07:13:03.806Z,18.60
2019-05-06T07:15:33.656Z,18.30
2019-05-06T07:18:03.153Z,14.17
2019-05-06T07:20:52.519Z,19.90
2019-05-06T07:23:24.881Z,16.67
2019-05-06T07:25:54.769Z,16.17
2019-05-06T07:28:24.471Z,17.53
2019-05-06T07:30:53.974Z,14.47
2019-05-06T07:33:23.232Z,15.30
2019-05-06T07:35:53.355Z,15.27
2019-05-06T07:38:23.369Z,19.87
2019-05-06T07:40:54.138Z,25.73
2019-05-06T07:43:30.402Z,15.60
2019-05-06T07:46:04.196Z,15.37
2019-05-06T07:48:33.272Z,16.60
2019-05-06T07:51:03.080Z,15.90
2019-05-06T07:53:32.356Z,17.73
2019-05-06T07:56:03.626Z,20.00
2019-05-06T07:58:32.290Z,14.10
2019-05-06T08:01:02.634Z,19.33
2019-05-06T08:03:32.929Z,14.57
2019-05-06T08:06:02.755Z,14.50
2019-05-06T08:08:33.877Z,17.47
2019-05-06T08:11:02.851Z,14.47
2019-05-06T08:13:32.255Z,20.93
2019-05-06T08:16:02.234Z,14.40
2019-05-06T08:18:33.844Z,10.37
2019-05-06T08:21:04.731Z,13.47
2019-05-06T08:23:38.322Z,15.40
2019-05-06T08:26:12.051Z,16.57
2019-05-06T08:28:41.715Z,8.10
2019-05-06T08:31:12.840Z,16.30
2019-05-06T08:33:43.211Z,10.73
2019-05-06T08:36:14.986Z,11.87
2019-05-06T08:38:56.566Z,15.23
2019-05-06T08:41:26.383Z,16.73
2019-05-06T08:43:55.708Z,12.83
2019-05-06T08:46:24.901Z,16.17
2019-05-06T08:48:53.960Z,11.80
2019-05-06T08:51:24.490Z,16.23
2019-05-06T08:53:58.440Z,21.67
2019-05-06T08:56:27.721Z,17.80
2019-05-06T08:58:58.111Z,13.73
2019-05-06T09:01:34.629Z,13.30
2019-05-06T09:04:09.407Z,11.50
2019-05-06T09:06:34.993Z,11.67
2019-05-06T09:09:05.735Z,19.17
2019-05-06T09:11:34.569Z,13.23
2019-05-06T09:14:03.931Z,15.93
2019-05-06T09:16:33.277Z,15.87
2019-05-06T09:19:04.292Z,18.43
2019-05-06T09:21:33.545Z,16.93
2019-05-06T09:24:02.990Z,15.23
2019-05-06T09:26:39.482Z,15.97
2019-05-06T09:29:23.115Z,19.53
2019-05-06T09:31:53.944Z,14.40
2019-05-06T09:34:24.860Z,12.20
2019-05-06T09:37:13.777Z,15.03
2019-05-06T09:39:45.224Z,11.43
2019-05-06T09:42:15.615Z,16.27
2019-05-06T09:44:50.105Z,11.77
2019-05-06T09:47:25.170Z,16.70
2019-05-06T09:49:54.653Z,17.30
2019-05-06T09:52:23.892Z,11.07
2019-05-06T09:54:54.596Z,19.10
2019-05-06T09:57:25.901Z,18.77
2019-05-06T09:59:54.833Z,18.03
2019-05-06T10:02:24.157Z,21.03
2019-05-06T10:04:53.406Z,16.97
2019-05-06T10:07:22.692Z,20.00
2019-05-06T10:09:52.635Z,11.80
2019-05-06T10:12:22.156Z,16.23
2019-05-06T10:14:53.190Z,16.37
2019-05-06T10:17:22.513Z,19.37
2019-05-06T10:19:51.617Z,16.13
2019-05-06T10:22:23.129Z,18.10
2019-05-06T10:24:52.298Z,10.23
2019-05-06T10:27:22.698Z,9.93
2019-05-06T10:29:53.488Z,18.40
2019-05-06T10:32:24.246Z,19.60
2019-05-06T10:34:53.209Z,19.27
2019-05-06T10:37:26.924Z,12.30
2019-05-06T10:40:26.030Z,15.53
2019-05-06T10:43:10.264Z,16.57
2019-05-06T10:45:39.470Z,12.67
2019-05-06T10:48:08.908Z,16.77
2019-05-06T10:50:39.687Z,21.33
2019-05-06T10:53:19.247Z,9.20
2019-05-06T10:55:50.531Z,19.30
2019-05-06T10:58:22.331Z,15.73
2019-05-06T11:00:52.950Z,20.17
2019-05-06T11:03:23.485Z,17.87
2019-05-06T11:05:53.429Z,16.48
2019-05-06T11:08:22.894Z,25.90
2019-05-06T11:10:53.442Z,22.70
2019-05-06T11:13:24.403Z,16.80
2019-05-06T11:15:55.678Z,16.30
2019-05-06T11:18:24.448Z,16.55
2019-05-06T11:20:56.352Z,20.15
2019-05-06T11:23:24.206Z,11.83
2019-05-06T11:25:53.505Z,12.65
2019-05-06T11:28:42.742Z,13.50
2019-05-06T11:31:29.234Z,14.60
2019-05-06T11:34:03.200Z,17.80
2019-05-06T11:36:34.045Z,11.43
2019-05-06T11:39:04.772Z,13.83
2019-05-06T11:41:34.360Z,18.73
2019-05-06T11:44:03.686Z,18.30
2019-05-06T11:46:33.814Z,12.60
2019-05-06T11:49:02.694Z,10.65
2019-05-06T11:51:33.516Z,12.55
2019-05-06T11:54:16.222Z,11.38
2019-05-06T11:56:46.974Z,16.37
2019-05-06T11:59:05.030Z,15.53
2019-05-06T12:01:43.478Z,17.73
2019-05-06T12:04:13.918Z,20.15
2019-05-06T12:06:43.547Z,17.62
2019-05-06T12:09:16.457Z,14.40
2019-05-06T12:11:43.492Z,16.00
2019-05-06T12:14:12.743Z,11.78
2019-05-06T12:16:41.892Z,15.32
2019-05-06T12:19:12.918Z,17.85
2019-05-06T12:21:43.083Z,15.98
2019-05-06T12:24:12.365Z,16.55
2019-05-06T12:26:43.089Z,16.97
2019-05-06T12:29:12.826Z,16.40
2019-05-06T12:31:42.299Z,14.28
2019-05-06T12:34:14.479Z,21.90
2019-05-06T12:36:42.961Z,18.37
2019-05-06T12:39:18.627Z,14.05
2019-05-06T12:41:54.467Z,16.70
2019-05-06T12:44:23.927Z,19.25
2019-05-06T12:46:59.742Z,14.87
2019-05-06T12:49:28.335Z,20.08
2019-05-06T12:51:57.773Z,18.00
2019-05-06T12:54:27.214Z,20.15
2019-05-06T12:56:57.831Z,18.87
2019-05-06T12:59:26.931Z,11.97
2019-05-06T13:01:56.276Z,16.50
2019-05-06T13:04:46.298Z,16.05
2019-05-06T13:06:56.546Z,21.30
2019-05-06T13:09:25.797Z,13.88
2019-05-06T13:11:54.995Z,27.13
2019-05-06T13:14:24.164Z,16.17
2019-05-06T13:16:53.426Z,14.10
2019-05-06T13:19:22.860Z,14.75
2019-05-06T13:21:52.309Z,19.52
2019-05-06T13:24:22.787Z,19.20
2019-05-06T13:26:52.770Z,14.33
2019-05-06T13:29:27.507Z,14.65
2019-05-06T13:31:56.572Z,28.30
2019-05-06T13:34:25.913Z,19.20
2019-05-06T13:36:55.234Z,19.80
2019-05-06T13:39:24.322Z,26.65
2019-05-06T13:41:54.290Z,13.78
2019-05-06T13:44:23.462Z,18.70
2019-05-06T13:46:53.571Z,23.45
2019-05-06T13:49:24.506Z,17.80
2019-05-06T13:52:04.918Z,11.57
2019-05-06T13:54:34.281Z,13.80
2019-05-06T13:57:03.515Z,23.37
2019-05-06T13:59:35.148Z,30.40
2019-05-06T14:02:08.385Z,21.40
2019-05-06T14:04:37.576Z,14.70
2019-05-06T14:07:07.448Z,18.00
2019-05-06T14:09:40.138Z,17.80
2019-05-06T14:12:07.668Z,23.20
2019-05-06T14:14:36.999Z,20.43
2019-05-06T14:17:06.078Z,17.37
2019-05-06T14:19:38.723Z,19.10
2019-05-06T14:22:07.965Z,19.33
2019-05-06T14:24:38.992Z,13.70
2019-05-06T14:27:09.781Z,17.77
2019-05-06T14:29:42.164Z,20.70
2019-05-06T14:32:14.435Z,20.10
2019-05-06T14:34:43.329Z,17.40
2019-05-06T14:37:12.628Z,16.43
2019-05-06T14:39:52.835Z,24.80
2019-05-06T14:42:14.337Z,16.40
2019-05-06T14:44:43.451Z,19.13
2019-05-06T14:47:19.883Z,18.83
2019-05-06T14:49:48.886Z,15.53
2019-05-06T14:52:17.930Z,16.20
2019-05-06T14:54:48.840Z,22.47
2019-05-06T14:57:18.648Z,17.17
2019-05-06T14:59:50.825Z,17.13
2019-05-06T15:02:25.374Z,20.10
2019-05-06T15:04:53.334Z,15.63
2019-05-06T15:07:22.069Z,16.30
2019-05-06T15:10:07.840Z,14.27
2019-05-06T15:12:22.910Z,16.47
2019-05-06T15:14:52.941Z,14.23
2019-05-06T15:17:22.873Z,13.50
2019-05-06T15:19:55.920Z,17.60
2019-05-06T15:22:25.163Z,11.70
2019-05-06T15:24:54.168Z,11.70
2019-05-06T15:27:24.725Z,12.43
2019-05-06T15:29:58.703Z,14.50
2019-05-06T15:32:32.101Z,11.37
2019-05-06T15:35:02.820Z,14.67
2019-05-06T15:37:39.351Z,11.23
2019-05-06T15:40:08.795Z,11.07
2019-05-06T15:42:37.735Z,10.37
2019-05-06T15:45:09.877Z,9.63
2019-05-06T15:47:39.348Z,9.30
2019-05-06T15:50:08.676Z,9.63
2019-05-06T15:52:37.591Z,8.93
2019-05-06T15:55:10.009Z,11.83
2019-05-06T15:57:39.096Z,9.67
2019-05-06T16:00:08.844Z,9.97
2019-05-06T16:05:26.549Z,8.93
2019-05-06T16:07:55.430Z,11.77
2019-05-06T16:10:24.455Z,11.70
2019-05-06T16:12:53.699Z,13.10
2019-05-06T16:15:24.935Z,14.70
2019-05-06T16:17:53.834Z,11.47
2019-05-06T16:20:22.921Z,9.30
2019-05-06T16:22:54.115Z,10.40
2019-05-06T16:25:24.439Z,7.50
2019-05-06T16:27:55.091Z,10.53
2019-05-06T16:30:26.435Z,6.73
2019-05-06T16:32:55.670Z,10.70
2019-05-06T16:35:24.945Z,12.50
2019-05-06T16:37:54.351Z,10.57
2019-05-06T16:40:24.315Z,8.90
2019-05-06T16:42:54.129Z,7.67
2019-05-06T16:45:24.155Z,9.67
2019-05-06T16:47:53.568Z,8.70
2019-05-06T16:50:24.059Z,9.67
2019-05-06T16:52:53.569Z,10.33
2019-05-06T16:55:32.973Z,8.77
2019-05-06T16:58:12.477Z,9.00
2019-05-06T17:00:42.970Z,7.30
2019-05-06T17:03:14.641Z,8.40
2019-05-06T17:06:04.924Z,6.53
2019-05-06T17:08:36.472Z,6.43
2019-05-06T17:11:05.121Z,9.07
2019-05-06T17:13:37.294Z,6.20
2019-05-06T17:16:05.029Z,8.83
2019-05-06T17:18:34.170Z,6.13
2019-05-06T17:21:03.350Z,6.53
2019-05-06T17:23:34.919Z,8.37
2019-05-06T17:26:03.772Z,6.43
2019-05-06T17:28:37.695Z,6.87
2019-05-06T17:31:25.788Z,7.40
2019-05-06T17:33:56.839Z,6.20
2019-05-06T17:36:32.543Z,8.47
2019-05-06T17:39:05.432Z,11.80
2019-05-06T17:41:45.943Z,7.13
2019-05-06T17:44:07.086Z,6.40
2019-05-06T17:46:54.663Z,6.13
2019-05-06T17:49:34.315Z,8.37
2019-05-06T17:52:05.167Z,8.40
2019-05-06T17:54:35.106Z,5.00
2019-05-06T17:57:04.772Z,6.53
2019-05-06T17:59:37.136Z,8.27
2019-05-06T18:02:19.370Z,8.30
2019-05-06T18:04:48.677Z,5.17
2019-05-06T18:07:18.255Z,8.40
2019-05-06T18:09:47.542Z,8.03
2019-05-06T18:12:19.983Z,7.53
2019-05-06T18:14:49.479Z,5.50
2019-05-06T18:17:18.892Z,4.30
2019-05-06T18:19:48.167Z,7.40
2019-05-06T18:22:17.270Z,9.30
2019-05-06T18:24:46.556Z,6.70
2019-05-06T18:27:15.779Z,3.80
2019-05-06T18:29:45.028Z,6.00
2019-05-06T18:32:14.339Z,7.77
2019-05-06T18:34:43.808Z,8.80
2019-05-06T18:37:13.192Z,7.47
2019-05-06T18:39:42.620Z,8.37
2019-05-06T18:42:19.632Z,8.53
2019-05-06T18:44:42.583Z,5.20
2019-05-06T18:47:12.290Z,7.37
2019-05-06T18:49:42.666Z,9.70
2019-05-06T18:52:13.240Z,6.73
2019-05-06T18:54:42.950Z,7.50
2019-05-06T18:57:13.004Z,4.87
2019-05-06T18:59:42.610Z,4.40
2019-05-06T19:02:14.582Z,7.23
2019-05-06T19:04:45.146Z,6.27
2019-05-06T19:07:17.142Z,7.50
2019-05-06T19:09:52.209Z,5.40
2019-05-06T19:12:30.198Z,3.63
2019-05-06T19:14:52.576Z,3.47
2019-05-06T19:17:22.498Z,6.27
2019-05-06T19:19:52.007Z,8.07
2019-05-06T19:22:22.935Z,6.23
2019-05-06T19:24:52.281Z,4.63
2019-05-06T19:27:24.979Z,3.20
2019-05-06T19:29:54.611Z,3.67
2019-05-06T19:32:24.333Z,3.63
2019-05-06T19:34:54.417Z,5.07
2019-05-06T19:37:32.297Z,3.90
2019-05-06T19:40:02.691Z,4.13
2019-05-06T19:42:46.097Z,3.30
2019-05-06T19:45:12.979Z,3.87
2019-05-06T19:47:42.622Z,3.90
2019-05-06T19:50:12.087Z,2.37
2019-05-06T19:52:46.460Z,6.97
2019-05-06T19:55:16.101Z,3.87
2019-05-06T19:57:52.511Z,4.40
2019-05-06T20:00:22.802Z,5.43
2019-05-06T20:02:52.286Z,5.30
2019-05-06T20:05:26.804Z,3.67
2019-05-06T20:08:03.474Z,3.20
2019-05-06T20:10:43.222Z,2.20
2019-05-06T20:13:13.530Z,3.00
2019-05-06T20:15:44.561Z,4.17
2019-05-06T20:18:16.320Z,4.37
2019-05-06T20:20:45.885Z,5.50
2019-05-06T20:23:15.227Z,4.10
2019-05-06T20:25:45.011Z,4.90
2019-05-06T20:28:16.450Z,2.50
2019-05-06T20:30:49.579Z,3.60
2019-05-06T20:33:18.845Z,5.50
2019-05-06T20:35:47.944Z,3.70
2019-05-06T20:38:17.206Z,3.90
2019-05-06T20:40:48.222Z,3.80
2019-05-06T20:43:23.087Z,4.27
2019-05-06T20:45:48.397Z,2.67
2019-05-06T20:48:17.630Z,2.03
2019-05-06T20:50:46.961Z,2.43
2019-05-06T20:53:16.398Z,2.60
2019-05-06T20:55:47.966Z,5.43
2019-05-06T20:58:18.256Z,2.97
2019-05-06T21:00:52.128Z,7.13
2019-05-06T21:03:22.194Z,2.30
2019-05-06T21:05:51.746Z,3.97
2019-05-06T21:08:22.154Z,2.57
2019-05-06T21:10:52.838Z,2.70
2019-05-06T21:13:31.907Z,2.83
2019-05-06T21:15:52.889Z,3.57
2019-05-06T21:18:22.907Z,3.00
2019-05-06T21:20:52.330Z,7.80
2019-05-06T21:23:22.701Z,5.40
2019-05-06T21:25:53.194Z,3.40
2019-05-06T21:28:23.807Z,3.43
2019-05-06T21:30:52.906Z,4.20
2019-05-06T21:33:26.427Z,3.40
2019-05-06T21:35:55.828Z,3.40
2019-05-06T21:38:28.527Z,3.40
2019-05-06T21:40:58.425Z,3.60
2019-05-06T21:43:43.801Z,3.97
2019-05-06T21:46:03.724Z,5.17
2019-05-06T21:48:33.738Z,4.33
2019-05-06T21:51:04.586Z,4.47
2019-05-06T21:53:36.630Z,5.73
2019-05-06T21:56:05.285Z,3.83
2019-05-06T21:58:34.291Z,2.97
2019-05-06T22:01:05.415Z,2.33
2019-05-06T22:03:34.955Z,4.10
2019-05-06T22:06:04.625Z,3.00
2019-05-06T22:08:33.991Z,3.17
2019-05-06T22:11:03.705Z,2.30
2019-05-06T22:13:33.785Z,3.23
2019-05-06T22:16:06.190Z,2.13
2019-05-06T22:18:36.549Z,2.23
2019-05-06T22:21:09.034Z,3.47
2019-05-06T22:23:56.652Z,2.30
2019-05-06T22:26:25.836Z,3.03
2019-05-06T22:28:55.392Z,2.33
2019-05-06T22:31:25.164Z,3.97
2019-05-06T22:33:54.646Z,3.90
2019-05-06T22:36:24.255Z,3.63
2019-05-06T22:38:53.682Z,2.83
2019-05-06T22:41:25.257Z,3.87
2019-05-06T22:43:54.945Z,3.60
2019-05-06T22:46:24.989Z,3.17
2019-05-06T22:48:54.653Z,4.60
2019-05-06T22:51:24.827Z,4.80
2019-05-06T22:53:55.906Z,3.50
2019-05-06T22:56:25.761Z,4.30
2019-05-06T22:58:56.009Z,4.50
2019-05-06T23:01:45.891Z,3.40
2019-05-06T23:04:16.713Z,3.57
2019-05-06T23:06:53.970Z,3.10
2019-05-06T23:12:12.465Z,4.63
2019-05-06T23:14:42.164Z,2.83
2019-05-06T23:17:18.155Z,2.67
2019-05-06T23:19:52.781Z,3.47
2019-05-06T23:22:22.782Z,2.60
2019-05-06T23:24:56.223Z,3.00
2019-05-06T23:27:28.882Z,2.03
2019-05-06T23:30:03.053Z,4.87
2019-05-06T23:32:32.849Z,6.60
2019-05-06T23:35:04.569Z,3.30
2019-05-06T23:37:37.261Z,4.50
2019-05-06T23:40:43.377Z,2.50
2019-05-06T23:43:50.443Z,3.20
2019-05-06T23:46:59.207Z,3.13
2019-05-06T23:50:08.159Z,4.30
2019-05-06T23:53:14.375Z,3.10
2019-05-06T23:56:23.139Z,3.37
2019-05-06T23:58:52.571Z,4.93
